Margie, Minnesota
Current Conditions -  °F | °C
As of 8:13 AM on Monday 26 Jan 2015 (Local Time) from KFOZ Reporting Station
Unknown Precip Unknown Precip  
Wind Chill: 23°   Ceiling: 1000
Heat Index: 28°   Visibility: 7mi
Dew Point: 27°   Wind: 5mph
Humidity: 93%   Direction: 230°SW
Pressure: 29.58"   Gusts: NA
Location:  48.1°N, 93.94°W
Report Text: KFOZ 261413Z AUTO 23004KT 7SM UP OVC010 M02/M03 A2958 RMK AO2
Loading
Personal Weather Stations






























Interactive Weather Map New forecast layout! Learn more

10-Day Weather Forecast

Advertisements
Track Severe Weather on mobile